Airfield :
LOGIN :

Register | Disclaimer

   EN    FR    IT 

 










Legend :    VFR   Marginal VFR   IFR   Intensive IFR   Very Intensive IFR
Visi :
Ceiling :
>= 8 km
>= 3000ft
5 to 8 km
1000 to 3000 ft
1500m to 5 km
500 to 1000 ft
800 to 1500m
200 to 500 ft
< 800m
< 200 ft
Symbols :   Thunderstorms  Fog  Heavy snow  Heavy precipitations  Wind > 20 kt
SIGMETs :     Misc.  Thunderstorms  Icing  Turbulence  Mountain Waves  Volcanic Ashes







- Airport Elevation : 348 ft
- IATA code : STN
- Download approach charts


EGSS - London Stansted

CURRENT METAR :
  • 231620Z AUTO 23009KT 9999 BKN037/// //////CB 16/12 Q1011

EXPIRED METARs :
  • 231550Z AUTO 22009KT 9999 FEW047/// //////CB 16/13 Q1011
  • 231520Z AUTO 23005KT 9999 -RA FEW016/// SCT029/// //////CB 15/13 Q1011
  • 231450Z AUTO VRB01KT 9999 -RA FEW015/// BKN034/// //////CB 14/12 Q1011
  • 231420Z VRB03KT 9999 -RA FEW012CB BKN035 13/11 Q1012 RERA
  • 231350Z AUTO 36004KT 310V050 9999 -RA FEW011/// BKN024/// OVC042/// //////CB 15/12 Q1012

TAF AMD TAF EGSS
Valid from the 23 at 15:00 until the 24 at 18:00 UTC


231550Z 2315/2418 33008KT 9999 SCT025
TEMPO 2315/2323 7000 SHRA
PROB30
TEMPO 2315/2320 33015G25KT 4000 +SHRA
TEMPO 2323/2418 8000 -RA
BECMG 2401/2404 BKN006
PROB40
TEMPO 2403/2408 3000 RADZ BKN004
PROB40
TEMPO 2407/2418 33015G25KT
BECMG 2409/2412 BKN010
TEMPO 2412/2418 BKN007
ATIS : +44 1279 669 325
No reported NOTAMs for that airfield.



MET'MAP, your aeronautical weather chart ! - Copyright ORBIFLY December 2007 - Disclaimer

ORBIFLY MET'MAP TEAM :

Programming & Development : Alexandra Zaïnal
Concept & Development : Baudouin d'Aumeries
Co-Development & Prog : Marc-Olivier Méhu
Technical & hardware support : Manuel Goepfert

Contact : metmap@orbifly.com




SOURCES & CREDITS :

   NOAA